Aviation Digital Data Service (ADDS)

Output produced by METARs form (1101 UTC 30 April 2017)
found at http://www.aviationweather.gov/adds/metars/
 
EYKA 301050Z 28007KT 240V350 9999 BKN040 08/M02 Q1023
TAF EYKA 300500Z 3006/0106 31008KT 9999 BKN025 
     BECMG 3021/3023 SCT035 
     TEMPO 0102/0105 4000 MIFG BR
       
EYPA 301050Z 30005KT 210V350 CAVOK 07/02 Q1024
TAF EYPA 300500Z 3006/0106 03012KT 9000 SCT015 BKN025 
     TEMPO 3006/3012 BKN018CB 
     BECMG 3014/3016 VRB02KT CAVOK
       
EYSA 301050Z 28009KT 250V320 9999 SCT033 BKN047 07/M01 Q1023 BLU NOSIG
TAF EYSA 301100Z 3012/3021 29010KT 9000 SCT025
       
EYVI 301050Z 35008KT 290V040 9999 BKN032 07/M01 Q1022 NOSIG
TAF EYVI 300500Z 3006/0106 30008KT 9000 BKN015 
     TEMPO 3006/3009 BKN009 
     BECMG 3011/3012 BKN030 
     TEMPO 0102/0106 3000 RA BR OVC010